createdAt,value
2019-05-14T00:00:06.617Z,75.67
2019-05-14T00:02:34.398Z,75.82
2019-05-14T00:05:02.181Z,75.84
2019-05-14T00:07:31.972Z,76.12
2019-05-14T00:10:01.234Z,76.00
2019-05-14T00:12:28.736Z,76.42
2019-05-14T00:14:56.478Z,76.50
2019-05-14T00:17:24.252Z,76.85
2019-05-14T00:20:05.965Z,76.95
2019-05-14T00:22:21.806Z,77.10
2019-05-14T00:24:51.904Z,77.40
2019-05-14T00:27:21.677Z,77.44
2019-05-14T00:29:48.734Z,77.62
2019-05-14T00:32:16.522Z,77.78
2019-05-14T00:34:44.267Z,78.23
2019-05-14T00:37:11.992Z,78.49
2019-05-14T00:39:41.596Z,78.75
2019-05-14T00:42:09.182Z,79.08
2019-05-14T00:44:49.940Z,79.39
2019-05-14T00:47:06.921Z,79.72
2019-05-14T00:49:34.647Z,79.89
2019-05-14T00:52:02.474Z,80.19
2019-05-14T00:54:32.248Z,80.34
2019-05-14T00:57:01.456Z,80.51
2019-05-14T00:59:29.063Z,80.66
2019-05-14T01:01:56.838Z,80.86
2019-05-14T01:04:24.582Z,81.12
2019-05-14T01:06:52.325Z,81.27
2019-05-14T01:09:21.777Z,81.35
2019-05-14T01:11:51.292Z,81.43
2019-05-14T01:14:21.146Z,81.41
2019-05-14T01:16:51.431Z,81.25
2019-05-14T01:19:18.824Z,81.80
2019-05-14T01:21:46.567Z,82.18
2019-05-14T01:24:14.364Z,82.42
2019-05-14T01:26:43.238Z,82.63
2019-05-14T01:29:12.017Z,82.97
2019-05-14T01:31:41.771Z,83.08
2019-05-14T01:34:11.199Z,83.32
2019-05-14T01:36:38.716Z,83.63
2019-05-14T01:39:06.488Z,83.97
2019-05-14T01:41:34.240Z,84.28
2019-05-14T01:44:01.994Z,84.39
2019-05-14T01:46:31.652Z,84.34
2019-05-14T01:49:01.373Z,84.25
2019-05-14T01:51:28.563Z,84.28
2019-05-14T01:53:56.373Z,84.32
2019-05-14T01:56:24.126Z,84.11
2019-05-14T01:58:52.381Z,84.21
2019-05-14T02:01:21.934Z,84.52
2019-05-14T02:03:51.805Z,84.43
2019-05-14T02:06:21.255Z,84.37
2019-05-14T02:08:48.741Z,84.70
2019-05-14T02:11:16.487Z,84.77
2019-05-14T02:13:44.239Z,85.13
2019-05-14T02:16:13.047Z,84.98
2019-05-14T02:18:41.632Z,85.02
2019-05-14T02:21:11.681Z,85.07
2019-05-14T02:23:38.982Z,85.09
2019-05-14T02:26:06.727Z,85.26
2019-05-14T02:28:34.786Z,85.52
2019-05-14T02:31:03.825Z,85.63
2019-05-14T02:33:31.952Z,85.67
2019-05-14T02:36:00.094Z,85.80
2019-05-14T02:38:29.938Z,86.03
2019-05-14T02:40:59.940Z,86.16
2019-05-14T02:43:29.277Z,86.42
2019-05-14T02:46:09.551Z,86.27
2019-05-14T02:48:28.939Z,85.96
2019-05-14T02:50:55.206Z,86.05
2019-05-14T02:53:22.989Z,86.10
2019-05-14T02:55:50.745Z,86.43
2019-05-14T02:58:20.761Z,86.51
2019-05-14T03:00:49.206Z,86.97
2019-05-14T03:03:19.271Z,87.25
2019-05-14T03:05:49.439Z,87.35
2019-05-14T03:08:19.461Z,87.27
2019-05-14T03:10:45.582Z,87.64
2019-05-14T03:13:13.319Z,88.00
2019-05-14T03:15:41.090Z,88.15
2019-05-14T03:18:09.369Z,88.18
2019-05-14T03:20:39.029Z,88.10
2019-05-14T03:23:09.851Z,88.09
2019-05-14T03:25:36.045Z,88.45
2019-05-14T03:28:03.812Z,88.37
2019-05-14T03:30:32.875Z,88.31
2019-05-14T03:33:02.629Z,88.07
2019-05-14T03:35:41.333Z,88.04
2019-05-14T03:38:00.397Z,87.96
2019-05-14T03:40:29.354Z,87.95
2019-05-14T03:42:59.818Z,88.05
2019-05-14T03:45:29.649Z,88.15
2019-05-14T03:47:58.715Z,87.98
2019-05-14T03:50:29.735Z,87.94
2019-05-14T03:52:59.106Z,87.83
2019-05-14T03:55:29.008Z,87.94
2019-05-14T03:57:59.495Z,87.78
2019-05-14T04:00:30.719Z,87.82
2019-05-14T04:03:00.242Z,87.89
2019-05-14T04:05:29.410Z,88.17
2019-05-14T04:08:00.116Z,88.06
2019-05-14T04:10:29.836Z,87.46
2019-05-14T04:12:59.721Z,86.10
2019-05-14T04:15:25.689Z,84.93
2019-05-14T04:17:53.461Z,83.58
2019-05-14T04:20:21.194Z,82.88
2019-05-14T04:22:50.184Z,81.63
2019-05-14T04:25:19.493Z,80.44
2019-05-14T04:27:49.393Z,80.06
2019-05-14T04:30:23.123Z,79.83
2019-05-14T04:32:50.274Z,79.42
2019-05-14T04:35:20.165Z,79.35
2019-05-14T04:37:49.680Z,78.93
2019-05-14T04:40:18.730Z,79.04
2019-05-14T04:42:45.639Z,79.06
2019-05-14T04:45:13.432Z,79.04
2019-05-14T04:47:42.351Z,79.43
2019-05-14T04:50:10.845Z,79.87
2019-05-14T04:52:40.290Z,79.78
2019-05-14T04:55:09.877Z,79.94
2019-05-14T04:57:39.123Z,80.06
2019-05-14T05:00:11.668Z,80.31
2019-05-14T05:02:39.780Z,80.85
2019-05-14T05:05:09.013Z,80.96
2019-05-14T05:07:35.683Z,80.95
2019-05-14T05:10:05.070Z,81.35
2019-05-14T05:12:32.826Z,81.52
2019-05-14T05:15:00.606Z,81.91
2019-05-14T05:17:42.866Z,82.23
2019-05-14T05:19:59.392Z,82.05
2019-05-14T05:22:28.631Z,81.50
2019-05-14T05:24:58.835Z,81.52
2019-05-14T05:27:25.887Z,81.25
2019-05-14T05:29:53.679Z,80.94
2019-05-14T05:32:21.427Z,80.63
2019-05-14T05:34:50.129Z,80.16
2019-05-14T05:37:19.019Z,79.54
2019-05-14T05:39:48.869Z,79.02
2019-05-14T05:42:18.602Z,78.24
2019-05-14T05:44:48.158Z,77.99
2019-05-14T05:47:15.070Z,77.34
2019-05-14T05:49:42.817Z,76.94
2019-05-14T05:52:10.599Z,76.04
2019-05-14T05:54:38.618Z,75.52
2019-05-14T05:57:09.034Z,75.40
2019-05-14T05:59:35.905Z,75.25
2019-05-14T06:02:03.903Z,75.19
2019-05-14T06:04:31.642Z,74.16
2019-05-14T06:07:02.514Z,73.77
2019-05-14T06:09:28.875Z,73.39
2019-05-14T06:11:59.033Z,72.31
2019-05-14T06:14:26.027Z,72.39
2019-05-14T06:16:53.861Z,72.22
2019-05-14T06:19:21.579Z,72.00
2019-05-14T06:21:49.438Z,71.20
2019-05-14T06:24:19.307Z,70.26
2019-05-14T06:26:48.811Z,70.01
2019-05-14T06:29:18.495Z,68.96
2019-05-14T06:31:45.411Z,68.55
2019-05-14T06:34:13.163Z,68.63
2019-05-14T06:36:41.967Z,68.23
2019-05-14T06:39:09.729Z,67.86
2019-05-14T06:41:42.493Z,66.82
2019-05-14T06:44:09.031Z,66.72
2019-05-14T06:46:36.292Z,66.43
2019-05-14T06:49:04.042Z,64.67
2019-05-14T06:51:31.839Z,63.56
2019-05-14T06:53:59.618Z,63.33
2019-05-14T06:56:28.283Z,63.43
2019-05-14T06:58:58.318Z,62.88
2019-05-14T07:01:25.535Z,63.01
2019-05-14T07:03:53.279Z,63.46
2019-05-14T07:06:21.075Z,63.08
2019-05-14T07:08:52.120Z,63.25
2019-05-14T07:11:19.145Z,61.71
2019-05-14T07:13:49.157Z,60.82
2019-05-14T07:16:16.594Z,59.78
2019-05-14T07:18:49.426Z,59.63
2019-05-14T07:21:13.765Z,58.48
2019-05-14T07:23:41.517Z,56.85
2019-05-14T07:26:09.271Z,57.30
2019-05-14T07:28:42.203Z,55.80
2019-05-14T07:31:06.456Z,55.47
2019-05-14T07:33:34.221Z,55.54
2019-05-14T07:36:02.015Z,54.94
2019-05-14T07:38:30.330Z,54.65
2019-05-14T07:40:58.708Z,54.60
2019-05-14T07:43:28.721Z,54.04
2019-05-14T07:45:58.055Z,53.30
2019-05-14T07:48:25.413Z,52.76
2019-05-14T07:50:53.216Z,51.85
2019-05-14T07:53:34.834Z,50.75
2019-05-14T07:55:50.363Z,50.36
2019-05-14T07:58:19.694Z,49.76
2019-05-14T08:00:49.254Z,49.47
2019-05-14T08:03:19.013Z,48.06
2019-05-14T08:05:48.251Z,49.20
2019-05-14T08:08:18.566Z,48.83
2019-05-14T08:10:45.402Z,46.50
2019-05-14T08:13:13.196Z,47.46
2019-05-14T08:15:40.935Z,47.09
2019-05-14T08:18:08.704Z,47.05
2019-05-14T08:20:37.985Z,46.48
2019-05-14T08:23:06.057Z,46.37
2019-05-14T08:25:33.814Z,45.74
2019-05-14T08:28:01.598Z,46.05
2019-05-14T08:30:29.346Z,45.72
2019-05-14T08:32:58.272Z,45.15
2019-05-14T08:35:26.178Z,44.99
2019-05-14T08:38:05.521Z,44.79
2019-05-14T08:40:23.506Z,45.06
2019-05-14T08:42:51.313Z,44.27
2019-05-14T08:45:19.086Z,43.38
2019-05-14T08:47:48.325Z,43.58
2019-05-14T08:50:18.561Z,42.28
2019-05-14T08:52:48.149Z,41.30
2019-05-14T08:55:15.179Z,41.02
2019-05-14T08:57:43.076Z,41.48
2019-05-14T09:00:14.659Z,41.27
2019-05-14T09:02:41.103Z,41.58
2019-05-14T09:05:10.280Z,39.87
2019-05-14T09:07:38.505Z,40.56
2019-05-14T09:10:08.668Z,38.94
2019-05-14T09:12:38.880Z,38.52
2019-05-14T09:15:06.240Z,38.85
2019-05-14T09:17:33.994Z,38.91
2019-05-14T09:20:07.003Z,39.45
2019-05-14T09:22:31.184Z,39.42
2019-05-14T09:25:00.116Z,38.62
2019-05-14T09:27:29.218Z,37.21
2019-05-14T09:29:58.993Z,37.25
2019-05-14T09:32:28.952Z,37.32
2019-05-14T09:34:56.041Z,36.91
2019-05-14T09:37:23.796Z,36.56
2019-05-14T09:39:51.550Z,36.40
2019-05-14T09:42:20.527Z,36.61
2019-05-14T09:44:49.055Z,36.64
2019-05-14T09:47:18.945Z,36.72
2019-05-14T09:49:48.881Z,33.36
2019-05-14T09:52:18.472Z,33.79
2019-05-14T09:54:45.179Z,33.59
2019-05-14T09:57:12.969Z,32.78
2019-05-14T09:59:40.703Z,33.20
2019-05-14T10:02:09.154Z,33.80
2019-05-14T10:04:39.124Z,33.91
2019-05-14T10:07:08.770Z,32.36
2019-05-14T10:09:38.668Z,33.08
2019-05-14T10:12:05.626Z,31.96
2019-05-14T10:14:33.381Z,33.07
2019-05-14T10:17:01.227Z,32.85
2019-05-14T10:19:29.779Z,33.45
2019-05-14T10:21:58.840Z,34.76
2019-05-14T10:24:28.939Z,35.74
2019-05-14T10:26:58.467Z,34.10
2019-05-14T10:29:25.513Z,33.40
2019-05-14T10:31:53.287Z,33.89
2019-05-14T10:34:21.101Z,35.51
2019-05-14T10:36:49.122Z,36.28
2019-05-14T10:39:19.196Z,35.89
2019-05-14T10:41:46.304Z,34.48
2019-05-14T10:44:14.271Z,33.87
2019-05-14T10:46:42.028Z,34.34
2019-05-14T10:49:19.966Z,34.91
2019-05-14T10:51:39.209Z,34.75
2019-05-14T10:54:21.189Z,35.26
2019-05-14T10:56:36.418Z,34.53
2019-05-14T10:59:04.159Z,33.92
2019-05-14T11:01:31.904Z,34.58
2019-05-14T11:03:59.696Z,34.81
2019-05-14T11:06:29.277Z,33.52
2019-05-14T11:08:56.862Z,33.96
2019-05-14T11:11:24.661Z,33.48
2019-05-14T11:13:52.400Z,32.82
2019-05-14T11:16:20.155Z,31.80
2019-05-14T11:18:49.814Z,31.86
2019-05-14T11:21:25.643Z,31.49
2019-05-14T11:23:48.935Z,30.01
2019-05-14T11:26:18.347Z,29.85
2019-05-14T11:28:45.558Z,30.66
2019-05-14T11:31:13.308Z,30.95
2019-05-14T11:33:41.150Z,30.34
2019-05-14T11:36:09.383Z,29.94
2019-05-14T11:38:37.925Z,30.50
2019-05-14T11:41:05.932Z,31.48
2019-05-14T11:43:33.739Z,31.48
2019-05-14T11:46:03.397Z,30.84
2019-05-14T11:48:31.190Z,30.31
2019-05-14T11:50:59.582Z,30.36
2019-05-14T11:53:27.635Z,30.79
2019-05-14T11:55:55.422Z,30.16
2019-05-14T11:58:23.173Z,30.63
2019-05-14T12:00:50.914Z,30.41
2019-05-14T12:03:19.829Z,30.36
2019-05-14T12:05:49.372Z,30.47
2019-05-14T12:08:18.533Z,30.60
2019-05-14T12:10:46.549Z,30.53
2019-05-14T12:13:14.310Z,30.76
2019-05-14T12:15:42.066Z,31.07
2019-05-14T12:18:10.510Z,31.60
2019-05-14T12:20:39.528Z,31.98
2019-05-14T12:23:08.869Z,31.61
2019-05-14T12:25:36.869Z,31.49
2019-05-14T12:28:04.657Z,31.76
2019-05-14T12:30:32.419Z,32.10
2019-05-14T12:33:00.208Z,31.00
2019-05-14T12:35:29.261Z,31.29
2019-05-14T12:37:58.553Z,31.13
2019-05-14T12:40:28.662Z,31.14
2019-05-14T12:42:58.624Z,31.70
2019-05-14T12:45:25.301Z,31.49
2019-05-14T12:47:53.273Z,30.88
2019-05-14T12:50:21.025Z,30.96
2019-05-14T12:52:48.822Z,31.40
2019-05-14T12:55:19.010Z,31.01
2019-05-14T12:57:48.400Z,30.81
2019-05-14T13:00:15.395Z,30.13
2019-05-14T13:02:43.196Z,30.28
2019-05-14T13:05:10.951Z,30.89
2019-05-14T13:07:41.423Z,31.16
2019-05-14T13:10:09.164Z,31.52
2019-05-14T13:12:39.029Z,31.96
2019-05-14T13:15:08.750Z,32.64
2019-05-14T13:17:38.806Z,32.59
2019-05-14T13:20:13.229Z,32.74
2019-05-14T13:22:42.285Z,32.83
2019-05-14T13:25:05.792Z,33.05
2019-05-14T13:27:33.521Z,33.34
2019-05-14T13:30:01.266Z,33.20
2019-05-14T13:32:29.084Z,33.11
2019-05-14T13:34:59.066Z,33.22
2019-05-14T13:37:28.646Z,33.89
2019-05-14T13:39:55.695Z,33.91
2019-05-14T13:42:23.446Z,34.27
2019-05-14T13:44:51.222Z,34.32
2019-05-14T13:47:18.998Z,34.23
2019-05-14T13:49:48.823Z,33.66
2019-05-14T13:52:18.712Z,33.17
2019-05-14T13:54:45.888Z,32.93
2019-05-14T13:57:13.654Z,33.18
2019-05-14T13:59:44.594Z,33.18
2019-05-14T14:02:11.611Z,33.52
2019-05-14T14:04:39.527Z,33.62
2019-05-14T14:07:09.081Z,33.70
2019-05-14T14:09:39.203Z,33.00
2019-05-14T14:12:08.156Z,32.60
2019-05-14T14:14:38.423Z,32.40
2019-05-14T14:17:05.071Z,32.45
2019-05-14T14:19:32.819Z,32.11
2019-05-14T14:22:00.570Z,32.71
2019-05-14T14:24:30.696Z,32.96
2019-05-14T14:26:58.492Z,33.63
2019-05-14T14:29:26.222Z,33.47
2019-05-14T14:31:53.990Z,33.45
2019-05-14T14:34:21.755Z,33.53
2019-05-14T14:36:50.468Z,33.48
2019-05-14T14:39:19.304Z,33.40
2019-05-14T14:41:48.840Z,33.86
2019-05-14T14:44:18.886Z,33.40
2019-05-14T14:46:48.212Z,33.73
2019-05-14T14:49:15.350Z,33.35
2019-05-14T14:51:45.102Z,33.55
2019-05-14T14:54:15.989Z,33.42
2019-05-14T14:56:42.044Z,32.10
2019-05-14T14:59:09.785Z,32.36
2019-05-14T15:01:40.250Z,32.67
2019-05-14T15:04:13.729Z,32.61
2019-05-14T15:06:39.851Z,31.79
2019-05-14T15:09:06.004Z,32.45
2019-05-14T15:11:34.712Z,31.78
2019-05-14T15:14:02.459Z,32.14
2019-05-14T15:16:30.276Z,32.61
2019-05-14T15:18:58.439Z,32.82
2019-05-14T15:21:29.722Z,32.45
2019-05-14T15:24:07.378Z,32.79
2019-05-14T15:26:28.735Z,33.15
2019-05-14T15:28:55.321Z,33.64
2019-05-14T15:31:23.146Z,33.83
2019-05-14T15:33:51.180Z,34.45
2019-05-14T15:36:19.663Z,34.00
2019-05-14T15:38:48.626Z,33.94
2019-05-14T15:41:20.115Z,34.08
2019-05-14T15:43:46.512Z,34.08
2019-05-14T15:46:14.329Z,34.17
2019-05-14T15:48:42.042Z,34.87
2019-05-14T15:51:11.511Z,35.23
2019-05-14T15:53:40.017Z,35.14
2019-05-14T15:56:08.250Z,35.14
2019-05-14T15:58:38.754Z,34.88
2019-05-14T16:01:05.494Z,35.28
2019-05-14T16:03:33.398Z,35.10
2019-05-14T16:06:01.160Z,35.50
2019-05-14T16:08:29.696Z,35.45
2019-05-14T16:11:00.133Z,35.70
2019-05-14T16:13:28.532Z,35.82
2019-05-14T16:15:56.421Z,35.78
2019-05-14T16:18:24.178Z,36.13
2019-05-14T16:20:52.230Z,36.16
2019-05-14T16:23:20.598Z,36.70
2019-05-14T16:25:48.480Z,36.84
2019-05-14T16:28:19.360Z,37.25
2019-05-14T16:30:45.694Z,37.27
2019-05-14T16:33:13.443Z,37.24
2019-05-14T16:35:42.869Z,37.15
2019-05-14T16:38:10.668Z,36.87
2019-05-14T16:40:39.490Z,36.40
2019-05-14T16:43:07.575Z,35.67
2019-05-14T16:45:35.459Z,35.34
2019-05-14T16:48:03.222Z,35.13
2019-05-14T16:50:30.988Z,35.24
2019-05-14T16:52:59.094Z,35.13
2019-05-14T16:55:30.447Z,34.78
2019-05-14T16:57:58.224Z,34.19
2019-05-14T17:00:29.183Z,34.05
2019-05-14T17:02:55.823Z,33.95
2019-05-14T17:05:23.583Z,34.24
2019-05-14T17:07:51.384Z,33.54
2019-05-14T17:10:19.127Z,33.43
2019-05-14T17:12:53.536Z,32.28
2019-05-14T17:15:18.149Z,32.01
2019-05-14T17:17:48.056Z,32.00
2019-05-14T17:20:15.382Z,32.20
2019-05-14T17:22:43.195Z,31.97
2019-05-14T17:25:25.208Z,32.04
2019-05-14T17:27:40.361Z,32.24
2019-05-14T17:30:08.795Z,33.19
2019-05-14T17:32:39.138Z,33.96
2019-05-14T17:35:06.098Z,34.95
2019-05-14T17:37:33.891Z,36.13
2019-05-14T17:40:01.654Z,37.57
2019-05-14T17:42:29.451Z,39.01
2019-05-14T17:44:58.933Z,40.27
2019-05-14T17:47:28.873Z,41.50
2019-05-14T17:49:56.188Z,42.60
2019-05-14T17:52:23.991Z,43.66
2019-05-14T17:54:51.748Z,44.28
2019-05-14T17:57:24.924Z,44.93
2019-05-14T17:59:49.572Z,45.32
2019-05-14T18:02:19.131Z,45.68
2019-05-14T18:04:48.784Z,46.09
2019-05-14T18:07:18.985Z,45.79
2019-05-14T18:09:45.891Z,46.05
2019-05-14T18:12:13.651Z,46.14
2019-05-14T18:14:41.443Z,46.63
2019-05-14T18:17:09.345Z,46.88
2019-05-14T18:19:37.953Z,47.23
2019-05-14T18:22:05.896Z,47.63
2019-05-14T18:24:33.665Z,48.10
2019-05-14T18:27:01.398Z,48.38
2019-05-14T18:29:29.697Z,48.61
2019-05-14T18:32:00.992Z,48.89
2019-05-14T18:34:28.437Z,49.24
2019-05-14T18:36:56.401Z,49.80
2019-05-14T18:39:24.170Z,50.50
2019-05-14T18:41:51.907Z,50.49
2019-05-14T18:44:21.318Z,50.73
2019-05-14T18:46:49.061Z,51.32
2019-05-14T18:49:19.273Z,50.64
2019-05-14T18:51:46.223Z,50.28
2019-05-14T18:54:13.966Z,50.51
2019-05-14T18:56:41.731Z,50.16
2019-05-14T18:59:13.944Z,50.19
2019-05-14T19:01:41.758Z,50.15
2019-05-14T19:04:09.869Z,50.20
2019-05-14T19:06:38.906Z,50.20
2019-05-14T19:09:09.937Z,50.57
2019-05-14T19:11:38.580Z,50.65
2019-05-14T19:14:05.629Z,50.59
2019-05-14T19:16:34.625Z,50.69
2019-05-14T19:19:03.128Z,50.37
2019-05-14T19:21:31.647Z,50.27
2019-05-14T19:24:01.078Z,50.32
2019-05-14T19:26:36.654Z,50.51
2019-05-14T19:28:59.870Z,50.62
2019-05-14T19:31:28.320Z,50.69
2019-05-14T19:33:56.868Z,50.80
2019-05-14T19:36:25.488Z,51.02
2019-05-14T19:38:53.977Z,51.07
2019-05-14T19:41:23.098Z,51.08
2019-05-14T19:43:51.739Z,51.09
2019-05-14T19:46:20.222Z,51.13
2019-05-14T19:48:48.703Z,51.12
2019-05-14T19:51:18.826Z,51.24
2019-05-14T19:53:48.597Z,51.39
2019-05-14T19:56:16.935Z,51.20
2019-05-14T19:58:44.738Z,51.94
2019-05-14T20:01:14.588Z,52.24
2019-05-14T20:03:42.335Z,52.24
2019-05-14T20:06:10.086Z,52.55
2019-05-14T20:08:38.407Z,52.53
2019-05-14T20:11:06.437Z,52.69
2019-05-14T20:13:34.186Z,52.85
2019-05-14T20:16:05.016Z,52.72
2019-05-14T20:18:32.794Z,52.97
2019-05-14T20:21:03.551Z,53.35
2019-05-14T20:23:31.308Z,53.19
2019-05-14T20:26:01.629Z,53.05
2019-05-14T20:28:28.855Z,53.52
2019-05-14T20:30:58.591Z,53.79
2019-05-14T20:33:26.031Z,54.12
2019-05-14T20:35:53.771Z,54.37
2019-05-14T20:38:21.512Z,54.61
2019-05-14T20:40:50.957Z,55.08
2019-05-14T20:43:18.767Z,55.26
2019-05-14T20:45:48.874Z,55.56
2019-05-14T20:48:15.948Z,56.00
2019-05-14T20:50:43.724Z,56.14
2019-05-14T20:53:11.461Z,55.97
2019-05-14T20:55:39.311Z,55.89
2019-05-14T20:58:08.019Z,56.03
2019-05-14T21:00:35.961Z,56.13
2019-05-14T21:03:04.918Z,56.08
2019-05-14T21:05:32.659Z,56.27
2019-05-14T21:08:00.403Z,56.56
2019-05-14T21:10:29.110Z,57.56
2019-05-14T21:12:58.067Z,58.12
2019-05-14T21:15:28.259Z,58.47
2019-05-14T21:17:55.532Z,58.34
2019-05-14T21:20:23.286Z,58.49
2019-05-14T21:22:51.045Z,58.86
2019-05-14T21:25:18.876Z,58.93
2019-05-14T21:27:51.302Z,59.08
2019-05-14T21:30:16.118Z,59.49
2019-05-14T21:32:43.896Z,59.96
2019-05-14T21:35:11.642Z,60.38
2019-05-14T21:37:39.697Z,60.86
2019-05-14T21:40:09.184Z,61.16
2019-05-14T21:42:38.468Z,61.36
2019-05-14T21:45:07.541Z,61.82
2019-05-14T21:47:35.800Z,61.53
2019-05-14T21:50:04.722Z,61.43
2019-05-14T21:52:32.469Z,61.42
2019-05-14T21:55:00.250Z,61.85
2019-05-14T21:57:28.385Z,61.70
2019-05-14T21:59:56.249Z,62.09
2019-05-14T22:02:27.488Z,62.50
2019-05-14T22:04:54.493Z,62.93
2019-05-14T22:07:22.256Z,63.25
2019-05-14T22:09:50.042Z,63.05
2019-05-14T22:12:20.362Z,63.12
2019-05-14T22:14:48.164Z,63.35
2019-05-14T22:17:15.982Z,63.25
2019-05-14T22:19:43.723Z,63.37
2019-05-14T22:22:11.460Z,63.47
2019-05-14T22:24:39.244Z,63.61
2019-05-14T22:27:09.190Z,63.98
2019-05-14T22:29:36.395Z,64.02
2019-05-14T22:32:04.165Z,63.69
2019-05-14T22:34:31.902Z,63.90
2019-05-14T22:36:59.649Z,63.79
2019-05-14T22:39:29.139Z,64.16
2019-05-14T22:42:00.028Z,64.41
2019-05-14T22:44:28.147Z,64.30
2019-05-14T22:46:58.619Z,64.00
2019-05-14T22:49:25.443Z,64.68
2019-05-14T22:51:53.173Z,64.86
2019-05-14T22:54:21.102Z,65.28
2019-05-14T22:56:48.821Z,65.67
2019-05-14T22:59:20.337Z,65.65
2019-05-14T23:01:47.997Z,65.70
2019-05-14T23:04:15.373Z,66.16
2019-05-14T23:06:43.275Z,66.63
2019-05-14T23:09:11.058Z,66.83
2019-05-14T23:11:38.853Z,66.93
2019-05-14T23:14:06.563Z,66.80
2019-05-14T23:16:40.987Z,67.01
2019-05-14T23:19:03.720Z,67.16
2019-05-14T23:21:31.471Z,67.34
2019-05-14T23:23:59.266Z,67.32
2019-05-14T23:26:28.528Z,67.41
2019-05-14T23:28:58.596Z,67.64
2019-05-14T23:31:26.012Z,67.77
2019-05-14T23:33:53.769Z,68.01
2019-05-14T23:36:21.537Z,68.01
2019-05-14T23:38:49.390Z,68.29
2019-05-14T23:41:17.228Z,68.45
2019-05-14T23:43:44.975Z,68.66
2019-05-14T23:46:12.783Z,68.62
2019-05-14T23:48:40.523Z,68.96
2019-05-14T23:51:08.392Z,69.01
2019-05-14T23:53:38.823Z,69.08
2019-05-14T23:56:05.537Z,68.97
2019-05-14T23:58:33.287Z,68.58
